Time;durP1;ratioP1;P1;durP2;ratioP2;P2;SDS_P1;SDS_P2;PMS_P1;PMS_P2;Temp;Humidity;BMP_temperature;BMP_pressure;BME280_temperature;BME280_humidity;BME280_pressure;Samples;Min_cycle;Max_cycle;Signal;HPM_P1;HPM_P2
2023/10/04 00:01:09;;;;;;;6.23;6.03;;;22.80;99.90;;;;;;4992253;28;20557;-73
2023/10/04 00:03:37;;;;;;;6.70;6.43;;;22.90;99.90;;;;;;4992466;28;20558;-72
2023/10/04 00:06:06;;;;;;;6.73;6.43;;;22.80;99.90;;;;;;4992706;28;20955;-73
2023/10/04 00:08:35;;;;;;;5.27;4.93;;;22.80;99.90;;;;;;4992553;28;20437;-73
2023/10/04 00:11:04;;;;;;;6.40;6.00;;;22.70;99.90;;;;;;4992005;28;20447;-72
2023/10/04 00:13:33;;;;;;;6.00;5.70;;;22.70;99.90;;;;;;4992249;28;20505;-73
2023/10/04 00:16:06;;;;;;;6.00;5.70;;;22.70;99.90;;;;;;4992591;28;20493;-72
2023/10/04 00:18:35;;;;;;;5.53;5.33;;;22.70;99.90;;;;;;4992109;28;20899;-72
2023/10/04 00:21:06;;;;;;;6.93;6.53;;;22.70;99.90;;;;;;4992154;28;20478;-72
2023/10/04 00:23:36;;;;;;;5.13;4.93;;;22.70;99.90;;;;;;4982978;28;20533;-73
2023/10/04 00:26:07;;;;;;;6.13;5.73;;;22.70;99.90;;;;;;4972398;28;20987;-73
2023/10/04 00:28:38;;;;;;;6.30;6.07;;;22.70;99.90;;;;;;4956111;28;20470;-73
2023/10/04 00:31:05;;;;;;;6.23;6.00;;;22.70;99.90;;;;;;4972548;28;20943;-73
2023/10/04 00:33:36;;;;;;;5.43;5.23;;;22.60;99.90;;;;;;4972519;28;20480;-72
2023/10/04 00:36:06;;;;;;;5.60;5.40;;;22.60;99.90;;;;;;4973017;28;20538;-72
2023/10/04 00:38:35;;;;;;;5.87;5.60;;;22.60;99.90;;;;;;4972665;28;20558;-72
2023/10/04 00:41:06;;;;;;;6.53;6.03;;;22.60;99.90;;;;;;4972709;28;20954;-72
2023/10/04 00:43:47;;;;;;;6.07;5.87;;;22.60;99.90;;;;;;4972460;28;20471;-72
2023/10/04 00:46:15;;;;;;;6.10;5.80;;;22.50;99.90;;;;;;4972647;28;20448;-72
2023/10/04 00:48:45;;;;;;;5.83;5.53;;;22.50;99.90;;;;;;4992071;28;20497;-72
2023/10/04 00:51:14;;;;;;;5.03;4.93;;;22.50;99.90;;;;;;4991963;28;20443;-72
2023/10/04 00:53:42;;;;;;;5.90;5.33;;;22.50;99.90;;;;;;4991704;28;21003;-72
2023/10/04 00:56:12;;;;;;;4.33;4.23;;;22.50;99.90;;;;;;4976217;28;20530;-73
2023/10/04 00:58:42;;;;;;;5.77;5.57;;;22.50;99.90;;;;;;4972697;28;20542;-72
2023/10/04 01:01:09;;;;;;;4.83;4.63;;;22.50;99.90;;;;;;4972467;28;20495;-72
2023/10/04 01:03:37;;;;;;;4.97;4.77;;;22.50;99.90;;;;;;4972174;28;21001;-72
2023/10/04 01:06:09;;;;;;;5.93;5.60;;;22.50;99.90;;;;;;4972496;28;20819;-72
2023/10/04 01:08:39;;;;;;;4.90;4.60;;;22.50;99.90;;;;;;4974143;28;20482;-72
2023/10/04 01:11:10;;;;;;;5.53;5.33;;;22.40;99.90;;;;;;4991852;28;20447;-72
2023/10/04 01:13:40;;;;;;;5.40;5.30;;;22.40;99.90;;;;;;4991622;28;21136;-72
2023/10/04 01:16:09;;;;;;;5.53;5.33;;;22.40;99.90;;;;;;4991950;28;20473;-73
2023/10/04 01:18:37;;;;;;;5.43;5.23;;;22.40;99.90;;;;;;4991876;28;20458;-72
2023/10/04 01:21:10;;;;;;;5.50;5.30;;;22.40;99.90;;;;;;4991785;28;20489;-72
2023/10/04 01:23:40;;;;;;;5.13;4.87;;;22.40;99.90;;;;;;4991562;28;21001;-72
2023/10/04 01:26:25;;;;;;;4.60;4.50;;;22.30;99.90;;;;;;4981663;28;20486;-72
2023/10/04 01:28:53;;;;;;;5.60;5.30;;;22.40;99.90;;;;;;4972442;28;20444;-72
2023/10/04 01:31:21;;;;;;;5.10;5.00;;;22.30;99.90;;;;;;4971088;28;20451;-71
2023/10/04 01:33:49;;;;;;;5.23;5.07;;;22.30;99.90;;;;;;4972429;28;20482;-71
2023/10/04 01:36:20;;;;;;;5.53;5.23;;;22.30;99.90;;;;;;4972814;28;20452;-71
2023/10/04 01:38:52;;;;;;;7.17;5.00;;;22.30;99.90;;;;;;4974476;28;20435;-72
2023/10/04 01:41:22;;;;;;;4.80;4.70;;;22.30;99.90;;;;;;4975665;28;20973;-71
2023/10/04 01:44:00;;;;;;;5.63;5.43;;;22.30;99.90;;;;;;4975515;28;20460;-72
2023/10/04 01:46:29;;;;;;;5.60;5.30;;;22.30;99.90;;;;;;4974330;28;20451;-73
2023/10/04 01:48:59;;;;;;;4.73;4.53;;;22.30;99.90;;;;;;4975616;28;20447;-72
2023/10/04 01:51:29;;;;;;;5.33;5.13;;;22.30;99.90;;;;;;4975542;28;20471;-72
2023/10/04 01:54:00;;;;;;;5.53;5.23;;;22.20;99.90;;;;;;4975168;28;20482;-71
2023/10/04 01:56:37;;;;;;;5.30;5.20;;;22.20;99.90;;;;;;4975470;28;20451;-72
2023/10/04 01:59:09;;;;;;;5.00;4.90;;;22.20;99.90;;;;;;4975731;28;20451;-72
2023/10/04 02:01:51;;;;;;;4.67;4.47;;;22.20;99.90;;;;;;4975091;28;20660;-72
2023/10/04 02:04:23;;;;;;;5.10;5.00;;;22.20;99.90;;;;;;4975387;28;20502;-72
2023/10/04 02:06:50;;;;;;;4.90;4.80;;;22.20;99.90;;;;;;4975368;28;20448;-73
2023/10/04 02:09:20;;;;;;;4.67;4.57;;;22.20;99.90;;;;;;4978390;28;20830;-71
2023/10/04 02:11:48;;;;;;;5.50;5.30;;;22.20;99.90;;;;;;4994590;28;20475;-72
2023/10/04 02:14:15;;;;;;;5.30;5.10;;;22.20;99.90;;;;;;4994535;28;21172;-72
2023/10/04 02:16:42;;;;;;;5.33;5.13;;;22.20;99.90;;;;;;4994387;28;20475;-72
2023/10/04 02:19:10;;;;;;;5.70;5.50;;;22.10;99.90;;;;;;4994098;28;20447;-72
2023/10/04 02:21:36;;;;;;;5.47;5.27;;;22.20;99.90;;;;;;4994436;28;20482;-72
2023/10/04 02:24:04;;;;;;;5.50;5.30;;;22.20;99.90;;;;;;4994046;28;20509;-72
2023/10/04 02:26:35;;;;;;;5.00;4.90;;;22.20;99.90;;;;;;4994378;28;20858;-72
2023/10/04 02:29:04;;;;;;;4.70;4.60;;;22.20;99.90;;;;;;4993834;28;20575;-73
2023/10/04 02:31:33;;;;;;;4.70;4.60;;;22.10;99.90;;;;;;4993875;28;20455;-72
2023/10/04 02:34:01;;;;;;;5.10;4.90;;;22.10;99.90;;;;;;4993747;28;20537;-73
2023/10/04 02:36:28;;;;;;;4.40;4.30;;;22.10;99.90;;;;;;4994156;28;20537;-72
2023/10/04 02:38:55;;;;;;;4.70;4.60;;;22.10;99.90;;;;;;4993998;28;20517;-72
2023/10/04 02:41:22;;;;;;;5.30;5.10;;;22.10;99.90;;;;;;4993897;28;20511;-72
2023/10/04 02:43:51;;;;;;;5.43;5.27;;;22.10;99.90;;;;;;4993629;28;20803;-72
2023/10/04 02:46:20;;;;;;;5.30;5.10;;;22.00;99.90;;;;;;4993902;28;20446;-73
2023/10/04 02:48:48;;;;;;;4.80;4.70;;;22.00;99.90;;;;;;4990401;28;20567;-73
2023/10/04 02:51:15;;;;;;;5.50;5.33;;;22.00;99.90;;;;;;4974286;28;20448;-73
2023/10/04 02:53:43;;;;;;;5.00;4.80;;;22.00;99.90;;;;;;4974077;28;20844;-73
2023/10/04 02:56:10;;;;;;;5.10;5.00;;;22.00;99.90;;;;;;4974356;28;20448;-72
2023/10/04 02:58:36;;;;;;;5.87;5.57;;;22.00;99.90;;;;;;4974423;28;20493;-72
2023/10/04 03:01:05;;;;;;;5.10;4.87;;;22.00;99.90;;;;;;4974018;28;20526;-73
2023/10/04 03:03:33;;;;;;;5.27;4.93;;;22.00;99.90;;;;;;4973899;28;20503;-73
2023/10/04 03:06:01;;;;;;;5.27;5.17;;;22.00;99.90;;;;;;4974065;28;20456;-73
2023/10/04 03:08:28;;;;;;;4.90;4.80;;;22.00;99.90;;;;;;4987415;28;20487;-73
2023/10/04 03:10:55;;;;;;;5.10;5.00;;;22.00;99.90;;;;;;4993378;28;20478;-73
2023/10/04 03:13:25;;;;;;;6.27;6.07;;;22.00;99.90;;;;;;4993143;28;20474;-73
2023/10/04 03:15:52;;;;;;;5.20;5.00;;;22.00;99.90;;;;;;4993443;28;20927;-73
2023/10/04 03:18:25;;;;;;;5.23;4.93;;;22.00;99.90;;;;;;4993404;28;20796;-73
2023/10/04 03:21:09;;;;;;;5.43;5.23;;;22.00;99.90;;;;;;4992741;28;20483;-73
2023/10/04 03:23:40;;;;;;;4.67;4.57;;;22.00;99.90;;;;;;4992955;28;20471;-73
2023/10/04 03:26:07;;;;;;;6.30;6.10;;;22.00;99.90;;;;;;4993210;28;20443;-73
2023/10/04 03:28:36;;;;;;;5.00;4.60;;;21.90;99.90;;;;;;4993097;28;21008;-73
2023/10/04 03:31:08;;;;;;;5.73;5.43;;;22.00;99.90;;;;;;4992642;28;20443;-73
2023/10/04 03:33:37;;;;;;;5.10;4.90;;;22.00;99.90;;;;;;4992743;28;20490;-73
2023/10/04 03:36:06;;;;;;;4.83;4.70;;;21.90;99.90;;;;;;4993256;28;21042;-73
2023/10/04 03:38:33;;;;;;;5.77;5.57;;;21.90;99.90;;;;;;4992965;28;20455;-73
2023/10/04 03:41:00;;;;;;;5.40;5.30;;;21.90;99.90;;;;;;4992743;28;20490;-73
2023/10/04 03:43:27;;;;;;;5.63;5.33;;;21.90;99.90;;;;;;4992368;28;20498;-73
2023/10/04 03:45:54;;;;;;;5.80;5.60;;;21.90;99.90;;;;;;4993045;28;20450;-73
2023/10/04 03:48:23;;;;;;;5.80;5.60;;;21.90;99.90;;;;;;4992771;28;20482;-73
2023/10/04 03:50:53;;;;;;;5.70;5.50;;;21.90;99.90;;;;;;4992567;28;20442;-73
2023/10/04 03:53:21;;;;;;;6.10;6.00;;;21.90;99.90;;;;;;4992453;28;20466;-73
2023/10/04 03:55:49;;;;;;;5.83;5.53;;;21.90;99.90;;;;;;4987059;28;20452;-73
2023/10/04 03:58:19;;;;;;;6.23;6.03;;;21.90;99.90;;;;;;4973295;28;20475;-73
2023/10/04 04:00:47;;;;;;;5.33;5.23;;;21.90;99.90;;;;;;4972341;28;20538;-73
2023/10/04 04:03:14;;;;;;;6.20;5.97;;;21.90;99.90;;;;;;4973067;28;20463;-73
2023/10/04 04:05:42;;;;;;;6.60;6.20;;;21.90;99.90;;;;;;4973209;28;20510;-73
2023/10/04 04:08:12;;;;;;;6.03;5.83;;;21.90;99.90;;;;;;4983189;28;20539;-73
2023/10/04 04:10:39;;;;;;;5.90;5.60;;;21.90;99.90;;;;;;4992423;28;20471;-73
2023/10/04 04:13:07;;;;;;;6.30;6.10;;;21.90;99.90;;;;;;4992206;28;20637;-73
2023/10/04 04:15:35;;;;;;;5.60;5.20;;;21.90;99.90;;;;;;4992255;28;20482;-73
2023/10/04 04:18:06;;;;;;;6.77;6.57;;;21.90;99.90;;;;;;4992387;28;20451;-72
2023/10/04 04:20:35;;;;;;;6.53;6.33;;;21.90;99.90;;;;;;4992307;28;20497;-72
2023/10/04 04:23:04;;;;;;;6.60;6.50;;;21.90;99.90;;;;;;4992095;28;20870;-72
2023/10/04 04:25:33;;;;;;;6.40;6.20;;;21.90;99.90;;;;;;4991993;28;20530;-72
2023/10/04 04:28:02;;;;;;;7.20;6.90;;;21.90;99.90;;;;;;4992243;28;20537;-72
2023/10/04 04:30:31;;;;;;;6.50;6.40;;;21.90;99.90;;;;;;4992206;28;20486;-72
2023/10/04 04:32:58;;;;;;;7.57;7.37;;;21.90;99.90;;;;;;4991836;28;20475;-72
2023/10/04 04:35:40;;;;;;;6.53;6.33;;;21.90;99.90;;;;;;4992124;28;20479;-72
2023/10/04 04:38:13;;;;;;;7.00;6.50;;;21.90;99.90;;;;;;4992176;28;20986;-72
2023/10/04 04:40:44;;;;;;;6.30;6.00;;;21.90;99.90;;;;;;4992079;28;20447;-72
2023/10/04 04:43:34;;;;;;;6.60;6.30;;;21.90;99.90;;;;;;4991880;28;20463;-72
2023/10/04 04:46:01;;;;;;;6.40;6.10;;;21.90;99.90;;;;;;4979780;28;20455;-72
2023/10/04 04:48:29;;;;;;;5.70;5.50;;;21.90;99.90;;;;;;4972512;28;20514;-72
2023/10/04 04:50:58;;;;;;;6.13;6.03;;;21.80;99.90;;;;;;4972683;28;20995;-72
2023/10/04 04:53:27;;;;;;;6.97;6.57;;;21.90;99.90;;;;;;4972616;28;20546;-72
2023/10/04 04:55:56;;;;;;;6.93;6.53;;;21.90;99.90;;;;;;4972561;28;20847;-72
2023/10/04 04:58:23;;;;;;;10.23;7.63;;;21.90;99.90;;;;;;4989464;28;20474;-72
2023/10/04 05:00:55;;;;;;;12.43;8.47;;;21.90;99.90;;;;;;4991877;28;20515;-72
2023/10/04 05:03:22;;;;;;;23.13;9.30;;;21.90;99.90;;;;;;4991701;28;20498;-73
2023/10/04 05:05:49;;;;;;;9.67;8.80;;;21.90;99.90;;;;;;4981881;28;20541;-72
2023/10/04 05:08:17;;;;;;;14.60;7.90;;;22.00;99.90;;;;;;4984200;28;20489;-77
2023/10/04 05:10:44;;;;;;;15.93;9.03;;;22.00;99.90;;;;;;4992105;28;20482;-73
2023/10/04 05:13:13;;;;;;;13.13;8.80;;;22.10;99.90;;;;;;4988895;28;20903;-75
2023/10/04 05:15:42;;;;;;;16.73;8.37;;;22.20;99.90;;;;;;4976048;28;20478;-74
2023/10/04 05:18:15;;;;;;;14.20;8.60;;;22.10;99.90;;;;;;4983049;28;20451;-74
2023/10/04 05:20:42;;;;;;;14.80;8.13;;;22.10;99.90;;;;;;4995440;28;20505;-74
2023/10/04 05:23:10;;;;;;;14.77;9.20;;;22.10;99.90;;;;;;4995110;28;20495;-74
2023/10/04 05:25:37;;;;;;;13.80;10.77;;;22.10;99.90;;;;;;4995337;28;20570;-74
2023/10/04 05:28:05;;;;;;;13.73;9.60;;;22.10;99.90;;;;;;4995176;28;20479;-74
2023/10/04 05:30:34;;;;;;;9.27;8.37;;;22.10;99.90;;;;;;4995112;28;20513;-74
2023/10/04 05:33:01;;;;;;;18.37;8.63;;;22.00;99.90;;;;;;4994683;28;20502;-74
2023/10/04 05:35:28;;;;;;;12.43;8.70;;;22.00;99.90;;;;;;4995041;28;20478;-74
2023/10/04 05:37:55;;;;;;;12.13;9.13;;;22.10;99.90;;;;;;4995011;28;20943;-74
2023/10/04 05:40:27;;;;;;;10.10;9.40;;;22.10;99.90;;;;;;4995006;28;20442;-74
2023/10/04 05:42:56;;;;;;;9.00;8.07;;;22.00;99.90;;;;;;4994667;28;20490;-74
2023/10/04 05:45:25;;;;;;;16.93;8.63;;;22.00;99.90;;;;;;4995047;28;20525;-74
2023/10/04 05:47:54;;;;;;;8.93;7.80;;;22.00;99.90;;;;;;4994796;28;20926;-74
2023/10/04 05:50:22;;;;;;;9.67;7.20;;;22.00;99.90;;;;;;4994860;28;20521;-74
2023/10/04 05:52:49;;;;;;;12.03;7.90;;;22.00;99.90;;;;;;4994481;28;20493;-74
2023/10/04 05:55:17;;;;;;;10.67;9.30;;;22.00;99.90;;;;;;4994885;28;20439;-74
2023/10/04 05:57:45;;;;;;;9.83;8.90;;;22.00;99.90;;;;;;4994730;28;20441;-74
2023/10/04 06:00:26;;;;;;;15.27;10.47;;;22.00;99.90;;;;;;4994675;28;20526;-74
2023/10/04 06:02:56;;;;;;;9.30;8.60;;;22.00;99.90;;;;;;4994206;28;20541;-74
2023/10/04 06:05:24;;;;;;;10.20;9.50;;;22.00;99.90;;;;;;4994667;28;20451;-74
2023/10/04 06:07:52;;;;;;;15.53;9.30;;;22.00;99.90;;;;;;4994493;28;20435;-74
2023/10/04 06:10:19;;;;;;;10.17;9.17;;;22.00;99.90;;;;;;4994521;28;20443;-74
2023/10/04 06:12:47;;;;;;;10.27;9.30;;;22.00;99.90;;;;;;4994186;28;20562;-74
2023/10/04 06:15:16;;;;;;;8.83;8.27;;;22.00;99.90;;;;;;4994326;28;20482;-74
2023/10/04 06:17:44;;;;;;;10.20;8.80;;;22.00;99.90;;;;;;4994380;28;20869;-74
2023/10/04 06:20:28;;;;;;;11.93;9.00;;;22.00;99.90;;;;;;4994412;28;20879;-74
2023/10/04 06:22:57;;;;;;;7.47;7.07;;;22.00;99.90;;;;;;4993624;28;20498;-74
2023/10/04 06:25:25;;;;;;;8.87;8.27;;;22.00;99.90;;;;;;4993828;28;20447;-74
2023/10/04 06:27:53;;;;;;;9.37;8.53;;;22.00;99.90;;;;;;4994115;28;20443;-74
2023/10/04 06:30:22;;;;;;;8.83;8.20;;;22.00;99.90;;;;;;4994082;28;20452;-74
2023/10/04 06:32:50;;;;;;;8.53;8.03;;;22.00;99.90;;;;;;4993580;28;20517;-74
2023/10/04 06:35:22;;;;;;;10.33;9.70;;;22.00;99.90;;;;;;4994067;28;20533;-74
2023/10/04 06:37:50;;;;;;;13.23;10.17;;;21.90;99.90;;;;;;4993938;28;20455;-74
2023/10/04 06:40:19;;;;;;;8.70;8.30;;;21.90;99.90;;;;;;4993944;28;20486;-74
2023/10/04 06:42:47;;;;;;;9.50;8.70;;;21.90;99.90;;;;;;4993529;28;20482;-74
2023/10/04 06:45:14;;;;;;;9.00;8.10;;;21.90;99.90;;;;;;4993872;28;20545;-74
2023/10/04 06:47:44;;;;;;;9.00;8.23;;;21.90;99.90;;;;;;4993816;28;20967;-74
2023/10/04 06:50:13;;;;;;;9.27;8.57;;;21.90;99.90;;;;;;4993703;28;20478;-74
2023/10/04 06:52:43;;;;;;;9.00;8.40;;;21.90;99.90;;;;;;4993401;28;20461;-74
2023/10/04 06:55:11;;;;;;;8.00;7.60;;;21.90;99.90;;;;;;4993564;28;20813;-74
2023/10/04 06:57:40;;;;;;;8.80;8.13;;;21.90;99.90;;;;;;4993517;28;20494;-74
2023/10/04 07:00:14;;;;;;;10.00;8.10;;;21.90;99.90;;;;;;4993400;28;20443;-74
2023/10/04 07:02:45;;;;;;;9.87;8.97;;;21.90;99.90;;;;;;4993254;28;20495;-74
2023/10/04 07:05:19;;;;;;;9.07;8.27;;;21.90;99.90;;;;;;4993453;28;20450;-74
2023/10/04 07:07:48;;;;;;;9.10;8.60;;;21.90;99.90;;;;;;4993442;28;20502;-74
2023/10/04 07:10:20;;;;;;;9.30;8.50;;;21.90;99.90;;;;;;4993418;28;20446;-74
2023/10/04 07:12:47;;;;;;;8.67;8.10;;;21.80;99.90;;;;;;4992985;28;20459;-74
2023/10/04 07:15:14;;;;;;;8.00;7.60;;;21.90;99.90;;;;;;4993222;28;20478;-74
2023/10/04 07:17:42;;;;;;;9.97;9.17;;;21.90;99.90;;;;;;4993168;28;20442;-74
2023/10/04 07:20:14;;;;;;;8.80;8.20;;;21.90;99.90;;;;;;4993126;28;20482;-74
2023/10/04 07:22:43;;;;;;;9.37;8.87;;;21.80;99.90;;;;;;4992784;28;20495;-74
2023/10/04 07:25:13;;;;;;;8.80;8.30;;;21.90;99.90;;;;;;4993002;28;20533;-74
2023/10/04 07:27:42;;;;;;;8.90;8.40;;;21.90;99.90;;;;;;4993021;28;20447;-74
2023/10/04 07:30:12;;;;;;;9.00;8.50;;;21.90;99.90;;;;;;4992917;28;20505;-74
2023/10/04 07:32:41;;;;;;;9.23;8.40;;;21.90;99.90;;;;;;5016701;22;20564;-74
2023/10/04 07:35:09;;;;;;;8.80;8.40;;;21.80;99.90;;;;;;4973429;28;20459;-73
2023/10/04 07:37:36;;;;;;;8.23;7.83;;;21.80;99.90;;;;;;4965343;28;20518;-73
2023/10/04 07:40:09;;;;;;;8.43;8.03;;;21.90;99.90;;;;;;4965313;28;20490;-73
2023/10/04 07:42:38;;;;;;;8.60;8.20;;;21.80;99.90;;;;;;4968964;28;20563;-73
2023/10/04 07:45:06;;;;;;;8.47;8.00;;;21.90;99.90;;;;;;4961820;28;20535;-73
2023/10/04 07:47:34;;;;;;;9.27;8.63;;;21.90;99.90;;;;;;4965257;28;20931;-73
2023/10/04 07:50:01;;;;;;;7.60;7.10;;;21.80;99.90;;;;;;4965317;28;20538;-74
2023/10/04 07:52:29;;;;;;;9.10;8.53;;;21.80;99.90;;;;;;4961747;28;20480;-73
2023/10/04 07:54:59;;;;;;;8.10;7.70;;;21.80;99.90;;;;;;4961689;28;20453;-73
2023/10/04 07:57:26;;;;;;;7.87;7.57;;;21.80;99.90;;;;;;4964169;28;20449;-73
2023/10/04 07:59:54;;;;;;;8.03;7.43;;;21.80;99.90;;;;;;4965022;28;20475;-73
2023/10/04 08:02:21;;;;;;;8.57;7.97;;;21.80;99.90;;;;;;4962564;28;20526;-73
2023/10/04 08:04:50;;;;;;;10.10;9.50;;;21.80;99.90;;;;;;4961612;28;20532;-74
2023/10/04 08:07:18;;;;;;;9.10;8.70;;;21.80;99.90;;;;;;4962750;28;20460;-73
2023/10/04 08:09:46;;;;;;;9.27;8.53;;;21.80;99.90;;;;;;4964884;28;20950;-73
2023/10/04 08:12:13;;;;;;;8.03;7.73;;;21.80;99.90;;;;;;4963823;28;20534;-73
2023/10/04 08:14:40;;;;;;;7.80;7.40;;;21.80;99.90;;;;;;4961251;28;20529;-74
2023/10/04 08:17:09;;;;;;;8.43;8.03;;;21.80;99.90;;;;;;4961559;28;20845;-74
2023/10/04 08:19:35;;;;;;;7.70;7.40;;;21.80;99.90;;;;;;4965087;28;20951;-73
2023/10/04 08:22:03;;;;;;;8.30;7.90;;;21.80;99.90;;;;;;4964416;28;20903;-73
2023/10/04 08:24:31;;;;;;;7.53;7.33;;;21.80;99.90;;;;;;4961386;28;20460;-73
2023/10/04 08:26:59;;;;;;;7.50;7.20;;;21.80;99.90;;;;;;4961352;28;20455;-73
2023/10/04 08:29:26;;;;;;;9.13;8.60;;;21.80;99.90;;;;;;4963556;28;20491;-73
2023/10/04 08:31:53;;;;;;;9.60;9.00;;;21.80;99.90;;;;;;4964318;28;20482;-73
2023/10/04 08:34:23;;;;;;;9.70;9.30;;;21.80;99.90;;;;;;4962656;28;20467;-74
2023/10/04 08:36:50;;;;;;;8.83;8.27;;;21.80;99.90;;;;;;4961215;28;20472;-73
2023/10/04 08:39:17;;;;;;;7.97;7.73;;;21.80;99.90;;;;;;4962321;28;20480;-73
2023/10/04 08:41:44;;;;;;;8.53;8.13;;;21.80;99.90;;;;;;4964283;28;20475;-73
2023/10/04 08:44:11;;;;;;;8.20;7.80;;;21.80;99.90;;;;;;4963678;28;20534;-73
2023/10/04 08:46:40;;;;;;;9.13;8.73;;;21.80;99.90;;;;;;4961765;28;20920;-74
2023/10/04 08:49:11;;;;;;;7.53;7.33;;;21.80;99.90;;;;;;4965062;28;20455;-73
2023/10/04 08:51:48;;;;;;;8.10;7.80;;;21.80;99.90;;;;;;4968917;28;21041;-73
2023/10/04 08:54:21;;;;;;;8.20;7.80;;;21.80;99.90;;;;;;4967160;28;20495;-73
2023/10/04 08:56:54;;;;;;;9.20;8.80;;;21.80;99.90;;;;;;4965083;28;20455;-73
2023/10/04 08:59:21;;;;;;;7.30;7.10;;;21.80;99.90;;;;;;4966306;28;20511;-73
2023/10/04 09:01:50;;;;;;;7.80;7.50;;;21.80;99.90;;;;;;4968048;28;20506;-73
2023/10/04 09:04:20;;;;;;;7.47;7.27;;;21.80;99.90;;;;;;4966753;28;20479;-74
2023/10/04 09:06:48;;;;;;;8.83;8.50;;;21.80;99.90;;;;;;4964769;28;20457;-74
2023/10/04 09:09:17;;;;;;;8.00;7.70;;;21.80;99.90;;;;;;4965537;28;20480;-73
2023/10/04 09:11:44;;;;;;;7.40;7.10;;;21.80;99.90;;;;;;4967910;28;20530;-73
2023/10/04 09:14:11;;;;;;;7.47;7.17;;;21.80;99.90;;;;;;4967289;28;20463;-73
2023/10/04 09:16:39;;;;;;;7.73;7.43;;;21.80;99.90;;;;;;4964605;28;20456;-73
2023/10/04 09:19:13;;;;;;;8.10;7.80;;;21.80;99.90;;;;;;4964539;28;20452;-73
2023/10/04 09:21:41;;;;;;;7.60;7.40;;;21.80;99.90;;;;;;4968512;28;20454;-73
2023/10/04 09:24:11;;;;;;;8.53;8.03;;;21.80;99.90;;;;;;4967469;28;20494;-73
2023/10/04 09:26:40;;;;;;;8.13;7.80;;;21.70;99.90;;;;;;4967894;28;20537;-73
2023/10/04 09:29:07;;;;;;;8.23;8.00;;;21.80;99.90;;;;;;4967670;28;20450;-73
2023/10/04 09:31:50;;;;;;;8.77;8.47;;;21.80;99.90;;;;;;4964094;28;20453;-73
2023/10/04 09:34:17;;;;;;;8.10;7.80;;;21.70;99.90;;;;;;4964947;28;20527;-73
2023/10/04 09:36:45;;;;;;;8.50;8.10;;;21.70;99.90;;;;;;4967785;28;21075;-73
2023/10/04 09:39:16;;;;;;;8.00;7.73;;;21.80;99.90;;;;;;4975750;28;20583;-72
2023/10/04 09:41:47;;;;;;;8.60;8.00;;;21.80;99.90;;;;;;4975927;28;20459;-71
2023/10/04 09:44:25;;;;;;;8.50;8.00;;;21.80;99.90;;;;;;4985582;28;20487;-77
2023/10/04 09:46:59;;;;;;;8.17;7.70;;;21.80;99.90;;;;;;4966448;28;21135;-71
2023/10/04 09:49:29;;;;;;;8.47;8.07;;;21.80;99.90;;;;;;4969436;28;20507;-69
2023/10/04 09:51:56;;;;;;;8.50;8.10;;;21.80;99.90;;;;;;4968153;28;20452;-75
2023/10/04 09:54:26;;;;;;;7.87;7.53;;;21.80;99.90;;;;;;4967183;28;20468;-76
2023/10/04 09:56:54;;;;;;;8.20;7.90;;;21.80;99.90;;;;;;4971850;28;20444;-75
2023/10/04 09:59:23;;;;;;;8.00;7.63;;;21.80;99.90;;;;;;4972501;28;20466;-70
2023/10/04 10:01:54;;;;;;;8.73;8.43;;;21.90;99.90;;;;;;4963713;28;20448;-74
2023/10/04 10:04:25;;;;;;;7.60;7.40;;;21.90;99.90;;;;;;4964892;28;20508;-71
2023/10/04 10:07:09;;;;;;;7.60;7.20;;;21.90;99.90;;;;;;4967522;28;20452;-69
2023/10/04 10:09:49;;;;;;;6.77;6.53;;;21.90;99.90;;;;;;4967198;28;20535;-74
2023/10/04 10:12:17;;;;;;;8.90;8.50;;;21.90;99.90;;;;;;4966248;28;20472;-73
2023/10/04 10:14:45;;;;;;;7.83;7.53;;;22.00;99.90;;;;;;4956021;28;20476;-74
2023/10/04 10:17:13;;;;;;;8.40;8.10;;;22.00;99.90;;;;;;4963630;28;20917;-68
2023/10/04 10:19:40;;;;;;;8.03;7.83;;;21.90;99.90;;;;;;4966746;28;20494;-68
2023/10/04 10:22:08;;;;;;;8.20;7.90;;;21.90;99.90;;;;;;4966689;28;20476;-68
2023/10/04 10:24:42;;;;;;;7.87;7.53;;;21.90;99.90;;;;;;4963373;28;20497;-68
2023/10/04 10:27:10;;;;;;;9.20;8.40;;;21.90;99.90;;;;;;4963269;28;20449;-68
2023/10/04 10:29:37;;;;;;;8.03;7.83;;;21.90;99.90;;;;;;4971277;28;20472;-68
2023/10/04 10:32:13;;;;;;;8.33;8.03;;;21.90;99.90;;;;;;4963054;28;20472;-68
2023/10/04 10:34:40;;;;;;;8.97;8.67;;;21.90;99.90;;;;;;4966709;28;20471;-68
2023/10/04 10:37:16;;;;;;;8.00;7.70;;;21.90;99.90;;;;;;4966506;28;20479;-68
2023/10/04 10:39:48;;;;;;;8.43;8.03;;;21.90;99.90;;;;;;4967173;28;20455;-68
2023/10/04 10:42:15;;;;;;;8.67;8.23;;;21.90;99.90;;;;;;4965630;28;20534;-68
2023/10/04 10:44:43;;;;;;;8.53;8.10;;;21.90;99.90;;;;;;4962893;28;20489;-68
2023/10/04 10:47:15;;;;;;;8.87;8.57;;;21.90;99.90;;;;;;4962991;28;20546;-68
2023/10/04 10:49:50;;;;;;;8.80;8.50;;;21.90;99.90;;;;;;4966895;28;20475;-68
2023/10/04 10:52:43;;;;;;;8.03;7.73;;;21.90;99.90;;;;;;4965378;28;20442;-68
2023/10/04 10:55:16;;;;;;;8.90;8.50;;;21.90;99.90;;;;;;4960108;28;21008;-68
2023/10/04 10:57:44;;;;;;;8.43;8.03;;;22.00;99.90;;;;;;4966794;28;21063;-69
2023/10/04 11:00:18;;;;;;;8.70;8.27;;;22.00;99.90;;;;;;4966103;28;20514;-69
2023/10/04 11:02:46;;;;;;;8.10;7.90;;;21.90;99.90;;;;;;4966765;28;20495;-68
2023/10/04 11:05:16;;;;;;;8.60;8.40;;;21.90;99.90;;;;;;4965986;28;20450;-68
2023/10/04 11:07:43;;;;;;;8.97;8.57;;;22.00;99.90;;;;;;4966537;28;20452;-68
2023/10/04 11:10:16;;;;;;;7.87;7.63;;;22.00;99.90;;;;;;4965633;28;20468;-68
2023/10/04 11:12:44;;;;;;;8.67;8.37;;;22.00;99.90;;;;;;4966216;28;20814;-68
2023/10/04 11:15:11;;;;;;;7.87;7.67;;;22.00;99.90;;;;;;4965760;28;20476;-68
2023/10/04 11:17:39;;;;;;;7.13;6.93;;;22.00;99.90;;;;;;4962285;28;20445;-68
2023/10/04 11:20:09;;;;;;;8.03;7.83;;;22.00;99.90;;;;;;4962322;28;20512;-68
2023/10/04 11:22:37;;;;;;;8.03;7.63;;;22.00;99.90;;;;;;4964747;28;20454;-68
2023/10/04 11:25:05;;;;;;;8.47;8.00;;;22.00;99.90;;;;;;4965501;28;20448;-68
2023/10/04 11:27:35;;;;;;;8.10;7.80;;;22.00;99.90;;;;;;4962983;28;20498;-68
2023/10/04 11:30:02;;;;;;;8.87;8.47;;;22.00;99.90;;;;;;4962134;28;20473;-68
2023/10/04 11:32:31;;;;;;;8.07;7.77;;;22.00;99.90;;;;;;4963784;28;20520;-68
2023/10/04 11:34:59;;;;;;;7.97;7.77;;;22.10;99.90;;;;;;4965341;28;20474;-68
2023/10/04 11:37:29;;;;;;;7.83;7.53;;;22.10;99.90;;;;;;4963733;28;20448;-69
2023/10/04 11:39:56;;;;;;;7.97;7.73;;;22.10;99.90;;;;;;4961976;28;20429;-68
2023/10/04 11:42:24;;;;;;;7.70;7.50;;;22.10;99.90;;;;;;4962787;28;20962;-68
2023/10/04 11:44:53;;;;;;;7.33;7.13;;;22.10;99.90;;;;;;4965014;28;20480;-68
2023/10/04 11:47:31;;;;;;;8.97;8.67;;;22.10;99.90;;;;;;4964317;28;20451;-68
2023/10/04 11:49:59;;;;;;;8.80;8.10;;;22.00;99.90;;;;;;4961862;28;20456;-67
2023/10/04 11:52:30;;;;;;;7.83;7.47;;;22.00;99.90;;;;;;4963001;28;20532;-68
2023/10/04 11:54:58;;;;;;;7.70;7.50;;;22.00;99.90;;;;;;4964939;28;20467;-68
2023/10/04 11:57:26;;;;;;;7.93;7.70;;;22.00;99.90;;;;;;4963644;28;20451;-68
2023/10/04 11:59:56;;;;;;;8.13;7.93;;;22.00;99.90;;;;;;4961863;28;20888;-68
2023/10/04 12:02:23;;;;;;;8.90;8.70;;;22.00;99.90;;;;;;4962582;28;20437;-68
2023/10/04 12:04:50;;;;;;;9.80;9.40;;;22.10;99.90;;;;;;4964822;28;20574;-68
2023/10/04 12:07:17;;;;;;;8.47;8.27;;;22.00;99.90;;;;;;4964521;28;20966;-69
2023/10/04 12:09:44;;;;;;;8.03;7.83;;;22.00;99.90;;;;;;4961433;28;20477;-68
2023/10/04 12:12:16;;;;;;;8.53;8.33;;;22.10;99.90;;;;;;4961330;28;20483;-68
2023/10/04 12:14:43;;;;;;;8.67;8.47;;;22.00;99.90;;;;;;4969030;28;20528;-68
2023/10/04 12:17:12;;;;;;;8.97;8.60;;;22.10;99.90;;;;;;4961449;28;20453;-68
2023/10/04 12:19:39;;;;;;;8.73;8.43;;;22.00;99.90;;;;;;4964423;28;20444;-68
2023/10/04 12:22:09;;;;;;;8.23;8.03;;;22.10;99.90;;;;;;4963756;28;20444;-68
2023/10/04 12:24:37;;;;;;;8.53;8.13;;;22.00;99.90;;;;;;4961688;28;20868;-68
2023/10/04 12:27:07;;;;;;;8.80;8.50;;;22.00;99.90;;;;;;4961293;28;20548;-68
2023/10/04 12:29:36;;;;;;;9.37;9.00;;;22.00;99.90;;;;;;4963699;28;20484;-68
2023/10/04 12:32:03;;;;;;;8.63;8.23;;;22.00;99.90;;;;;;4964346;28;20448;-68
2023/10/04 12:34:31;;;;;;;8.00;7.70;;;22.00;99.90;;;;;;4962631;28;20494;-68
2023/10/04 12:36:58;;;;;;;8.30;8.03;;;22.10;99.90;;;;;;4961236;28;20449;-68
2023/10/04 12:39:25;;;;;;;8.07;7.87;;;22.00;99.90;;;;;;4962090;28;20936;-68
2023/10/04 12:41:52;;;;;;;8.13;7.93;;;22.00;99.90;;;;;;4964211;28;20885;-68
2023/10/04 12:44:19;;;;;;;7.80;7.60;;;22.00;99.90;;;;;;4963963;28;20590;-69
2023/10/04 12:46:48;;;;;;;9.07;8.77;;;22.00;99.90;;;;;;4961176;28;20449;-68
2023/10/04 12:49:18;;;;;;;9.10;8.60;;;22.10;99.90;;;;;;4961154;28;20474;-69
2023/10/04 12:51:47;;;;;;;7.83;7.63;;;22.10;99.90;;;;;;4968575;28;20932;-68
2023/10/04 12:54:16;;;;;;;7.93;7.73;;;22.10;99.90;;;;;;4960931;28;20466;-69
2023/10/04 12:56:46;;;;;;;8.30;8.10;;;22.10;99.90;;;;;;4969042;28;21071;-69